Time;durP1;ratioP1;P1;durP2;ratioP2;P2;SDS_P1;SDS_P2;PMS_P1;PMS_P2;Temp;Humidity;BMP_temperature;BMP_pressure;BME280_temperature;BME280_humidity;BME280_pressure;Samples;Min_cycle;Max_cycle;Signal;HPM_P1;HPM_P2
2022/07/02 00:03:36;;;;;;;2.50;1.00;;;16.30;99.90;;;;;;12420522;28;20089;-82
2022/07/02 00:09:39;;;;;;;2.58;0.95;;;16.30;99.90;;;;;;12462700;28;20046;-82
2022/07/02 00:15:41;;;;;;;4.30;1.63;;;16.30;99.90;;;;;;12431097;28;20174;-81
2022/07/02 00:21:44;;;;;;;3.85;1.00;;;16.30;99.90;;;;;;12420236;28;20050;-82
2022/07/02 00:27:46;;;;;;;3.53;1.20;;;16.30;99.90;;;;;;12428278;28;20123;-82
2022/07/02 00:33:49;;;;;;;4.78;1.15;;;16.20;99.90;;;;;;12418523;28;20204;-83
2022/07/02 00:39:51;;;;;;;2.63;1.02;;;16.20;99.90;;;;;;12437128;28;20061;-82
2022/07/02 00:45:56;;;;;;;3.80;1.40;;;16.10;99.90;;;;;;12430439;28;20108;-83
2022/07/02 00:51:59;;;;;;;5.82;1.83;;;16.10;99.90;;;;;;12431468;28;20422;-82
2022/07/02 00:58:01;;;;;;;3.70;1.25;;;16.10;99.90;;;;;;12438438;28;20166;-84
2022/07/02 01:04:05;;;;;;;4.72;0.85;;;16.00;99.90;;;;;;12423050;28;20054;-82
2022/07/02 01:10:18;;;;;;;4.32;1.30;;;16.00;99.90;;;;;;12405180;28;20054;-83
2022/07/02 01:16:19;;;;;;;3.30;1.10;;;16.00;99.90;;;;;;12439210;28;20051;-82
2022/07/02 01:22:41;;;;;;;4.15;1.42;;;16.00;99.90;;;;;;12414682;28;20406;-82
2022/07/02 01:28:42;;;;;;;2.38;1.00;;;15.90;99.90;;;;;;12424949;28;20549;-83
2022/07/02 01:34:51;;;;;;;6.95;1.48;;;16.00;99.90;;;;;;12412486;28;20044;-83
2022/07/02 01:41:38;;;;;;;8.38;1.85;;;15.90;99.90;;;;;;12422126;28;21300;-82
2022/07/02 01:47:15;;;;;;;3.67;1.17;;;15.90;99.90;;;;;;12428743;28;20042;-83
2022/07/02 01:53:17;;;;;;;4.43;1.33;;;15.80;99.90;;;;;;12410156;28;20122;-82
2022/07/02 01:59:19;;;;;;;4.35;1.52;;;15.80;99.90;;;;;;12414818;28;20137;-83
2022/07/02 02:05:21;;;;;;;5.40;1.00;;;15.80;99.90;;;;;;12437938;28;20065;-83
2022/07/02 02:11:23;;;;;;;4.57;1.23;;;15.70;99.90;;;;;;12454227;28;20053;-83
2022/07/02 02:17:25;;;;;;;3.38;1.30;;;15.70;99.90;;;;;;12460714;28;20041;-84
2022/07/02 02:23:26;;;;;;;3.70;1.30;;;15.60;99.90;;;;;;12441069;28;20129;-83
2022/07/02 02:29:29;;;;;;;6.15;1.67;;;15.60;99.90;;;;;;12456817;28;20045;-84
2022/07/02 02:35:31;;;;;;;3.25;1.40;;;15.50;99.90;;;;;;12426352;28;20143;-83
2022/07/02 02:41:33;;;;;;;3.78;1.88;;;15.40;99.90;;;;;;12443282;28;20088;-83
2022/07/02 02:47:34;;;;;;;2.72;1.33;;;15.40;99.90;;;;;;12429252;28;20054;-83
2022/07/02 02:53:36;;;;;;;3.90;1.30;;;15.20;99.90;;;;;;12438775;28;20125;-82
2022/07/02 02:59:38;;;;;;;6.82;1.35;;;14.90;99.90;;;;;;12454135;28;20559;-82
2022/07/02 03:05:40;;;;;;;4.55;1.52;;;14.90;99.90;;;;;;12426086;28;20038;-82
2022/07/02 03:11:42;;;;;;;4.80;1.75;;;14.80;99.90;;;;;;12423656;28;20045;-82
2022/07/02 03:17:44;;;;;;;2.97;1.65;;;14.80;99.90;;;;;;12426763;28;20050;-83
2022/07/02 03:23:45;;;;;;;4.35;1.60;;;14.90;99.90;;;;;;12419864;28;20140;-82
2022/07/02 03:29:47;;;;;;;5.13;1.88;;;14.90;99.90;;;;;;12426677;28;20050;-83
2022/07/02 03:35:49;;;;;;;4.68;1.63;;;15.00;99.90;;;;;;12426509;28;20584;-83
2022/07/02 03:41:51;;;;;;;3.17;1.77;;;15.10;99.90;;;;;;12419886;28;20038;-82
2022/07/02 03:47:52;;;;;;;4.82;1.80;;;15.10;99.90;;;;;;12413571;28;20123;-82
2022/07/02 03:53:54;;;;;;;3.08;1.20;;;15.10;99.90;;;;;;12439895;28;20046;-83
2022/07/02 03:59:56;;;;;;;3.17;1.33;;;15.00;99.90;;;;;;12436628;28;20058;-82
2022/07/02 04:05:58;;;;;;;4.63;1.45;;;14.90;99.90;;;;;;12420780;28;20042;-82
2022/07/02 04:11:59;;;;;;;3.17;1.40;;;14.80;99.90;;;;;;12420041;28;20050;-82
2022/07/02 04:18:01;;;;;;;3.58;1.42;;;14.70;99.90;;;;;;12426772;28;20189;-82
2022/07/02 04:24:03;;;;;;;1.95;1.30;;;14.70;99.90;;;;;;12421199;28;20124;-82
2022/07/02 04:30:05;;;;;;;3.80;1.45;;;14.60;99.90;;;;;;12428590;28;20045;-82
2022/07/02 04:36:09;;;;;;;4.75;1.77;;;14.50;99.90;;;;;;12421247;28;20052;-82
2022/07/02 04:42:11;;;;;;;5.55;1.98;;;14.50;99.90;;;;;;12415517;28;20085;-82
2022/07/02 04:48:13;;;;;;;5.60;1.90;;;14.40;99.90;;;;;;12416069;28;20502;-83
2022/07/02 04:54:15;;;;;;;5.55;2.13;;;14.40;99.90;;;;;;12436878;28;20187;-82
2022/07/02 05:00:17;;;;;;;3.80;1.95;;;14.40;99.90;;;;;;12424349;28;20537;-82
2022/07/02 05:06:21;;;;;;;4.95;1.75;;;14.40;99.90;;;;;;12414928;28;20514;-82
2022/07/02 05:12:23;;;;;;;4.80;2.00;;;14.40;99.90;;;;;;12431668;28;20100;-82
2022/07/02 05:18:25;;;;;;;4.30;1.80;;;14.40;99.90;;;;;;12428882;28;20563;-82
2022/07/02 05:24:27;;;;;;;4.90;2.20;;;14.60;99.90;;;;;;12414681;28;20086;-82
2022/07/02 05:30:29;;;;;;;5.75;1.92;;;14.70;99.90;;;;;;12432698;28;20529;-82
2022/07/02 05:36:30;;;;;;;6.20;1.80;;;14.70;99.90;;;;;;12431802;28;20069;-82
2022/07/02 05:42:32;;;;;;;2.85;1.88;;;14.80;99.90;;;;;;12417484;28;20488;-82
2022/07/02 05:48:37;;;;;;;3.95;1.60;;;14.80;99.90;;;;;;12417231;28;20060;-83
2022/07/02 05:54:39;;;;;;;4.25;2.10;;;15.00;99.90;;;;;;12436900;28;20042;-83
2022/07/02 06:00:41;;;;;;;3.17;1.90;;;15.00;99.90;;;;;;12447314;28;20030;-83
2022/07/02 06:13:03;;;;;;;6.70;1.83;;;15.30;99.90;;;;;;12416466;28;20049;-82
2022/07/02 06:19:06;;;;;;;6.25;1.80;;;15.40;99.90;;;;;;12429243;28;20158;-82
2022/07/02 06:25:10;;;;;;;7.07;1.53;;;15.50;99.90;;;;;;12406338;28;20046;-82
2022/07/02 06:31:13;;;;;;;4.78;1.27;;;15.80;99.90;;;;;;12420369;28;20293;-82
2022/07/02 06:37:14;;;;;;;5.10;1.60;;;16.20;99.90;;;;;;12416437;28;20046;-82
2022/07/02 06:43:16;;;;;;;3.50;1.40;;;16.40;99.90;;;;;;12426546;28;20131;-83
2022/07/02 06:49:18;;;;;;;8.77;1.15;;;16.80;99.90;;;;;;12417711;28;20131;-83
2022/07/02 06:55:20;;;;;;;5.70;1.38;;;16.90;99.90;;;;;;12414286;28;20477;-86
2022/07/02 07:01:23;;;;;;;7.18;1.50;;;17.40;99.90;;;;;;12410958;28;20050;-84
2022/07/02 07:07:27;;;;;;;3.05;1.00;;;17.80;99.90;;;;;;12432165;28;20053;-85
2022/07/02 07:13:29;;;;;;;4.18;1.10;;;17.90;99.90;;;;;;12414205;28;20050;-84
2022/07/02 07:19:31;;;;;;;3.55;1.02;;;18.10;99.90;;;;;;12429730;28;20042;-83
2022/07/02 07:25:33;;;;;;;4.25;0.98;;;18.00;99.90;;;;;;12418556;28;20103;-85
2022/07/02 07:31:35;;;;;;;5.70;1.35;;;18.30;99.90;;;;;;12429514;28;20091;-85
2022/07/02 07:37:37;;;;;;;4.80;1.07;;;18.40;99.90;;;;;;12414597;28;20136;-83
2022/07/02 07:43:39;;;;;;;3.13;0.93;;;18.60;99.90;;;;;;12421159;28;20181;-83
2022/07/02 07:49:41;;;;;;;3.80;1.10;;;18.80;99.90;;;;;;12405564;28;20081;-83
2022/07/02 07:55:43;;;;;;;4.63;1.10;;;18.70;99.90;;;;;;12419071;28;20073;-84
2022/07/02 08:01:45;;;;;;;4.38;1.20;;;19.10;99.90;;;;;;12420191;28;20046;-86
2022/07/02 08:07:47;;;;;;;4.63;1.08;;;19.20;99.90;;;;;;12435321;28;20050;-86
2022/07/02 08:13:49;;;;;;;6.07;1.10;;;19.30;99.90;;;;;;12428268;28;20057;-85
2022/07/02 08:19:51;;;;;;;5.47;1.20;;;19.30;99.90;;;;;;12429451;28;20065;-85
2022/07/02 08:25:54;;;;;;;5.50;1.02;;;19.70;99.90;;;;;;12418668;28;20557;-86
2022/07/02 08:31:56;;;;;;;2.95;1.25;;;19.80;99.90;;;;;;12425894;28;20050;-87
2022/07/02 08:37:58;;;;;;;5.07;1.15;;;19.90;99.90;;;;;;12425102;28;20109;-84
2022/07/02 08:44:02;;;;;;;3.15;1.00;;;20.10;99.90;;;;;;12448432;28;20050;-85
2022/07/02 08:50:03;;;;;;;;;;;20.30;99.90;;;;;;12427736;28;20049;-86
2022/07/02 08:56:07;;;;;;;1.17;0.70;;;20.20;99.90;;;;;;12417866;28;19928;-86
2022/07/02 09:02:14;;;;;;;4.03;1.20;;;20.50;99.90;;;;;;12413642;28;20035;-86
2022/07/02 09:08:16;;;;;;;5.88;1.00;;;20.60;99.90;;;;;;12424486;28;20228;-85
2022/07/02 09:14:19;;;;;;;5.65;0.90;;;20.80;99.90;;;;;;12438712;28;20567;-85
2022/07/02 09:20:23;;;;;;;6.30;0.90;;;20.80;99.90;;;;;;12428991;28;20050;-85
2022/07/02 09:26:25;;;;;;;2.42;0.70;;;20.90;99.90;;;;;;12422741;28;20374;-84
2022/07/02 09:32:27;;;;;;;1.55;0.50;;;20.90;99.90;;;;;;12414746;28;20112;-87
2022/07/02 09:38:29;;;;;;;2.38;0.70;;;21.10;99.90;;;;;;12432139;28;20103;-86
2022/07/02 09:44:31;;;;;;;2.15;0.50;;;21.60;99.90;;;;;;12406809;28;20133;-86
2022/07/02 09:50:39;;;;;;;2.47;0.60;;;22.10;99.90;;;;;;12428042;28;20593;-87
2022/07/02 09:56:50;;;;;;;3.40;0.73;;;22.50;99.90;;;;;;12420013;28;20474;-86
2022/07/02 10:02:55;;;;;;;2.05;0.50;;;22.70;99.90;;;;;;12426485;28;20092;-88
2022/07/02 10:08:57;;;;;;;1.33;0.50;;;22.90;99.90;;;;;;12399804;28;20062;-87
2022/07/02 10:15:04;;;;;;;1.75;0.50;;;22.90;99.90;;;;;;12416047;28;20172;-87
2022/07/02 10:21:10;;;;;;;7.65;1.17;;;22.90;99.90;;;;;;12422084;28;20049;-86
2022/07/02 10:27:14;;;;;;;1.55;0.50;;;23.30;99.90;;;;;;12410719;28;20132;-87
2022/07/02 10:33:20;;;;;;;2.45;0.85;;;23.00;99.90;;;;;;12416892;28;20128;-88
2022/07/02 10:39:21;;;;;;;2.58;0.60;;;22.50;99.90;;;;;;12413888;28;20494;-86
2022/07/02 10:45:24;;;;;;;4.22;0.43;;;22.40;99.90;;;;;;12427661;28;20049;-84
2022/07/02 10:51:28;;;;;;;1.77;0.65;;;22.50;99.90;;;;;;12420854;28;20457;-87
2022/07/02 10:57:30;;;;;;;5.63;0.63;;;22.80;99.90;;;;;;12414604;28;20161;-87
2022/07/02 11:03:34;;;;;;;2.83;0.50;;;23.10;99.90;;;;;;12416065;28;20177;-86
2022/07/02 11:09:58;;;;;;;2.70;0.40;;;23.00;99.90;;;;;;12442501;28;20108;-87
2022/07/02 11:16:00;;;;;;;2.70;0.70;;;22.60;99.90;;;;;;12449228;28;20132;-85
2022/07/02 11:22:03;;;;;;;3.15;0.70;;;22.60;99.90;;;;;;12427322;28;20065;-86
2022/07/02 11:28:05;;;;;;;5.60;0.60;;;23.50;99.90;;;;;;12420788;28;20065;-87
2022/07/02 11:34:07;;;;;;;5.85;1.20;;;23.60;99.90;;;;;;12423486;28;20046;-88
2022/07/02 11:40:18;;;;;;;3.45;0.70;;;23.70;99.90;;;;;;12430197;28;20141;-84
2022/07/02 11:46:22;;;;;;;3.83;0.77;;;23.80;99.90;;;;;;12425631;28;20137;-87
2022/07/02 11:52:24;;;;;;;2.38;0.60;;;23.50;99.90;;;;;;12425582;28;20077;-86
2022/07/02 11:58:25;;;;;;;1.95;0.70;;;23.40;99.90;;;;;;12415161;28;20062;-84
2022/07/02 12:04:27;;;;;;;3.00;0.70;;;23.30;99.90;;;;;;12435397;28;20046;-85
2022/07/02 12:10:38;;;;;;;2.28;0.75;;;23.10;99.90;;;;;;12416249;28;20053;-85
2022/07/02 12:16:43;;;;;;;1.85;0.60;;;23.10;99.90;;;;;;12413386;28;20084;-85
2022/07/02 12:22:52;;;;;;;1.50;0.43;;;23.70;99.90;;;;;;12443304;28;20057;-88
2022/07/02 12:35:16;;;;;;;1.83;0.60;;;23.90;99.90;;;;;;12431588;28;20095;-86
2022/07/02 12:41:18;;;;;;;1.58;0.60;;;23.90;99.90;;;;;;12423636;28;20061;-86
2022/07/02 12:47:29;;;;;;;2.67;0.68;;;23.60;99.90;;;;;;12417943;28;20161;-85
2022/07/02 12:53:31;;;;;;;4.60;0.70;;;24.00;99.90;;;;;;12430599;28;20405;-84
2022/07/02 12:59:32;;;;;;;2.42;0.60;;;24.50;99.90;;;;;;12417503;28;20045;-85
2022/07/02 13:05:37;;;;;;;1.83;0.90;;;24.20;99.90;;;;;;12407187;28;20136;-87
2022/07/02 13:11:38;;;;;;;1.85;0.50;;;24.60;99.90;;;;;;12415948;28;20054;-84
2022/07/02 13:17:40;;;;;;;1.48;0.57;;;24.20;99.90;;;;;;12417204;28;20061;-89
2022/07/02 13:23:42;;;;;;;2.70;0.50;;;24.30;99.90;;;;;;12422928;28;20042;-87
2022/07/02 13:29:44;;;;;;;2.05;0.60;;;24.70;99.90;;;;;;12428097;28;20061;-86
2022/07/02 13:35:46;;;;;;;1.75;0.60;;;24.70;99.90;;;;;;12430423;28;20184;-87
2022/07/02 13:41:48;;;;;;;3.75;0.52;;;25.10;99.90;;;;;;12433696;28;20074;-83
2022/07/02 13:47:50;;;;;;;5.07;0.60;;;25.00;99.90;;;;;;12415881;28;20188;-85
2022/07/02 13:53:51;;;;;;;3.92;0.73;;;24.90;99.90;;;;;;12413610;28;20042;-85
2022/07/02 13:59:53;;;;;;;5.07;0.73;;;24.90;99.90;;;;;;12423632;28;20066;-88
2022/07/02 14:05:55;;;;;;;3.55;0.73;;;24.70;99.90;;;;;;12435952;28;20651;-87
2022/07/02 14:12:00;;;;;;;1.65;0.60;;;24.50;99.90;;;;;;12426598;28;20053;-84
2022/07/02 14:18:02;;;;;;;2.80;0.50;;;24.70;99.90;;;;;;12418689;28;20096;-84
2022/07/02 14:24:04;;;;;;;1.23;0.47;;;24.50;99.90;;;;;;12410393;28;20567;-84
2022/07/02 14:30:06;;;;;;;1.25;0.70;;;24.60;99.90;;;;;;12426766;28;20176;-84
2022/07/02 14:36:08;;;;;;;2.17;0.60;;;24.50;99.90;;;;;;12405176;28;20125;-83
2022/07/02 14:42:09;;;;;;;1.27;0.50;;;24.50;99.90;;;;;;12424507;28;20050;-86
2022/07/02 14:48:11;;;;;;;1.90;0.52;;;25.00;99.90;;;;;;12411478;28;20471;-85
2022/07/02 14:54:13;;;;;;;1.40;0.47;;;25.20;99.90;;;;;;12405696;28;20050;-84
2022/07/02 15:00:15;;;;;;;1.63;0.55;;;25.30;99.90;;;;;;12433042;28;20099;-84
2022/07/02 15:06:17;;;;;;;2.75;0.60;;;25.20;99.90;;;;;;12403807;28;20096;-86
2022/07/02 15:12:18;;;;;;;1.58;0.50;;;25.20;99.90;;;;;;12403308;28;20132;-85
2022/07/02 15:18:20;;;;;;;2.13;0.60;;;25.40;99.90;;;;;;12394260;28;20441;-83
2022/07/02 15:24:24;;;;;;;0.98;0.50;;;25.20;99.90;;;;;;12418416;28;20054;-84
2022/07/02 15:30:32;;;;;;;2.00;0.60;;;25.20;99.90;;;;;;12408684;28;20620;-86
2022/07/02 15:36:37;;;;;;;1.70;0.55;;;25.30;99.90;;;;;;12417439;28;20056;-85
2022/07/02 15:42:39;;;;;;;2.70;0.73;;;25.60;99.90;;;;;;12436991;28;20043;-86
2022/07/02 15:48:41;;;;;;;3.45;0.60;;;25.70;99.90;;;;;;12403052;28;20119;-85
2022/07/02 15:55:01;;;;;;;2.70;0.55;;;25.90;99.90;;;;;;12420381;28;20031;-85
2022/07/02 16:01:04;;;;;;;2.47;0.50;;;25.80;99.90;;;;;;12437124;28;20054;-85
2022/07/02 16:07:10;;;;;;;1.70;0.57;;;25.80;99.90;;;;;;12440029;28;20056;-84
2022/07/02 16:13:13;;;;;;;2.47;0.60;;;25.50;99.90;;;;;;12429416;28;20072;-83
2022/07/02 16:19:17;;;;;;;4.28;0.60;;;25.40;99.90;;;;;;12438985;28;20406;-84
2022/07/02 16:25:19;;;;;;;2.05;0.40;;;25.50;99.90;;;;;;12403764;28;20100;-84
2022/07/02 16:31:25;;;;;;;1.98;0.50;;;25.60;99.90;;;;;;12426960;28;20046;-87
2022/07/02 16:37:31;;;;;;;2.08;0.50;;;25.70;99.90;;;;;;12436699;28;20042;-85
2022/07/02 16:43:35;;;;;;;3.05;0.60;;;26.00;99.90;;;;;;12415426;28;20049;-84
2022/07/02 16:49:45;;;;;;;2.35;0.50;;;26.10;99.90;;;;;;12430289;28;20085;-83
2022/07/02 16:55:47;;;;;;;1.50;0.60;;;26.10;99.90;;;;;;12414011;28;20552;-85
2022/07/02 17:01:49;;;;;;;1.70;0.40;;;26.20;99.90;;;;;;12434655;28;20136;-85
2022/07/02 17:07:51;;;;;;;1.15;0.40;;;26.50;99.90;;;;;;12384985;28;20073;-84
2022/07/02 17:13:53;;;;;;;2.33;0.43;;;26.60;99.90;;;;;;12413484;28;20111;-86
2022/07/02 17:19:55;;;;;;;2.80;0.50;;;26.70;99.90;;;;;;12407966;28;20133;-84
2022/07/02 17:25:57;;;;;;;2.40;0.73;;;26.80;99.90;;;;;;12416120;28;20343;-86
2022/07/02 17:31:59;;;;;;;2.50;0.50;;;26.80;99.90;;;;;;12427385;28;20577;-85
2022/07/02 17:38:01;;;;;;;1.07;0.50;;;26.80;99.90;;;;;;12400061;28;20491;-87
2022/07/02 17:44:04;;;;;;;2.10;0.50;;;26.90;99.90;;;;;;12424361;28;20080;-84
2022/07/02 17:50:07;;;;;;;;;;;26.90;99.90;;;;;;12428457;28;20082;-85
2022/07/02 17:56:09;;;;;;;1.00;0.43;;;27.00;99.90;;;;;;12425837;28;19925;-85
2022/07/02 18:02:11;;;;;;;2.50;0.70;;;27.10;99.90;;;;;;12418671;28;20077;-84
2022/07/02 18:08:13;;;;;;;1.33;0.53;;;27.10;99.90;;;;;;12426979;28;20040;-84
2022/07/02 18:14:15;;;;;;;4.30;0.60;;;27.00;99.90;;;;;;12410964;28;20591;-85
2022/07/02 18:20:17;;;;;;;1.38;0.60;;;26.90;99.90;;;;;;12422719;28;20085;-84
2022/07/02 18:26:19;;;;;;;0.77;0.40;;;26.40;99.90;;;;;;12427212;28;20195;-84
2022/07/02 18:32:20;;;;;;;3.28;0.70;;;25.90;99.90;;;;;;12418844;28;20042;-84
2022/07/02 18:38:22;;;;;;;0.85;0.47;;;25.50;99.90;;;;;;12407543;28;20448;-84
2022/07/02 18:44:24;;;;;;;1.27;0.60;;;25.10;99.90;;;;;;12416379;28;20403;-84
2022/07/02 18:50:27;;;;;;;2.53;0.50;;;24.80;99.90;;;;;;12402343;28;20057;-83
2022/07/02 18:56:28;;;;;;;1.77;0.60;;;24.60;99.90;;;;;;12400247;28;20070;-84
2022/07/02 19:02:30;;;;;;;0.93;0.43;;;24.40;99.90;;;;;;12414907;28;20103;-84
2022/07/02 19:08:32;;;;;;;1.15;0.52;;;24.20;99.90;;;;;;12412177;28;20046;-84
2022/07/02 19:14:34;;;;;;;2.15;0.47;;;24.10;99.90;;;;;;12416307;28;20042;-83
2022/07/02 19:20:36;;;;;;;1.67;0.60;;;23.80;99.90;;;;;;12428311;28;20068;-83
2022/07/02 19:33:08;;;;;;;5.00;0.70;;;23.40;99.90;;;;;;12435037;28;20045;-84
2022/07/02 19:39:10;;;;;;;2.05;0.30;;;23.20;99.90;;;;;;12411515;28;20114;-84
2022/07/02 19:45:11;;;;;;;1.95;0.80;;;23.00;99.90;;;;;;12420774;28;20543;-83
2022/07/02 19:51:13;;;;;;;3.33;0.50;;;22.80;99.90;;;;;;12431864;28;20046;-84
2022/07/02 19:57:17;;;;;;;1.00;0.60;;;22.70;99.90;;;;;;12446001;28;20394;-84
2022/07/02 20:03:18;;;;;;;;;;;22.60;99.90;;;;;;12417340;28;20482;-84
2022/07/02 20:09:20;;;;;;;2.42;0.90;;;22.50;99.90;;;;;;12424532;28;20047;-84
2022/07/02 20:15:22;;;;;;;1.83;0.80;;;22.10;99.90;;;;;;12453148;28;20073;-84
2022/07/02 20:21:25;;;;;;;3.40;0.80;;;21.90;99.90;;;;;;12474681;28;20047;-85
2022/07/02 20:27:27;;;;;;;3.08;0.63;;;21.70;99.90;;;;;;12465916;28;20050;-86
2022/07/02 20:33:28;;;;;;;2.15;0.73;;;21.50;99.90;;;;;;12436829;28;20057;-83
2022/07/02 20:39:30;;;;;;;1.48;0.55;;;21.40;99.90;;;;;;12423980;28;20490;-83
2022/07/02 20:45:32;;;;;;;4.25;0.98;;;21.20;99.90;;;;;;12402997;28;20065;-84
2022/07/02 20:51:58;;;;;;;3.42;0.95;;;20.90;99.90;;;;;;12404628;28;20038;-83
2022/07/02 20:57:59;;;;;;;1.63;0.70;;;20.80;99.90;;;;;;12416879;28;20112;-84
2022/07/02 21:04:03;;;;;;;2.38;0.90;;;20.70;99.90;;;;;;12414640;28;20046;-84
2022/07/02 21:10:05;;;;;;;3.35;1.00;;;20.60;99.90;;;;;;12403451;28;20090;-83
2022/07/02 21:16:07;;;;;;;3.55;0.70;;;20.40;99.90;;;;;;12412675;28;20045;-84
2022/07/02 21:22:09;;;;;;;0.93;0.50;;;20.40;99.90;;;;;;12424951;28;20054;-84
2022/07/02 21:28:11;;;;;;;1.40;0.80;;;20.30;99.90;;;;;;12419393;28;20134;-84
2022/07/02 21:34:13;;;;;;;3.35;0.85;;;20.30;99.90;;;;;;12405955;28;20108;-84
2022/07/02 21:40:15;;;;;;;1.77;0.80;;;20.40;99.90;;;;;;12412838;28;20516;-84
2022/07/02 21:46:17;;;;;;;4.15;0.77;;;20.30;99.90;;;;;;12422799;28;20152;-84
2022/07/02 21:52:20;;;;;;;2.90;0.70;;;20.30;99.90;;;;;;12422108;28;20050;-84
2022/07/02 21:58:22;;;;;;;1.60;0.82;;;20.40;99.90;;;;;;12422621;28;20052;-84
2022/07/02 22:04:24;;;;;;;1.02;0.60;;;20.40;99.90;;;;;;12420922;28;20049;-84
2022/07/02 22:10:26;;;;;;;3.42;0.80;;;20.40;99.90;;;;;;12417158;28;20549;-84
2022/07/02 22:16:28;;;;;;;1.92;0.80;;;20.30;99.90;;;;;;12429234;28;20050;-84
2022/07/02 22:22:30;;;;;;;2.67;1.17;;;20.20;99.90;;;;;;12418918;28;20088;-84
2022/07/02 22:28:32;;;;;;;5.00;1.17;;;20.20;99.90;;;;;;12409186;28;20062;-84
2022/07/02 22:34:35;;;;;;;1.55;0.95;;;20.10;99.90;;;;;;12436812;28;20046;-84
2022/07/02 22:40:37;;;;;;;2.83;0.80;;;20.00;99.90;;;;;;12425086;28;20046;-84
2022/07/02 22:46:47;;;;;;;3.83;0.80;;;20.00;99.90;;;;;;12432931;28;20053;-83
2022/07/02 22:52:48;;;;;;;1.27;0.80;;;20.00;99.90;;;;;;12424149;28;20496;-84
2022/07/02 22:58:50;;;;;;;2.78;0.90;;;19.90;99.90;;;;;;12440196;28;20050;-84
2022/07/02 23:04:52;;;;;;;2.85;1.10;;;19.90;99.90;;;;;;12411217;28;20192;-83
2022/07/02 23:10:54;;;;;;;1.20;0.80;;;19.90;99.90;;;;;;12422536;28;20738;-84
2022/07/02 23:16:56;;;;;;;1.75;1.00;;;19.80;99.90;;;;;;12417846;28;20494;-84
2022/07/02 23:22:58;;;;;;;1.80;0.85;;;19.70;99.90;;;;;;12419503;28;20418;-83
2022/07/02 23:29:00;;;;;;;3.22;1.25;;;19.60;99.90;;;;;;12414849;28;20058;-83
2022/07/02 23:35:03;;;;;;;1.03;0.60;;;19.50;99.90;;;;;;12415156;28;20441;-83
2022/07/02 23:41:06;;;;;;;5.47;0.80;;;19.50;99.90;;;;;;12410957;28;20084;-84
2022/07/02 23:47:07;;;;;;;2.03;1.05;;;19.50;99.90;;;;;;12412317;28;20093;-83
2022/07/02 23:53:10;;;;;;;1.92;0.80;;;19.50;99.90;;;;;;12416149;28;20524;-83
2022/07/02 23:59:12;;;;;;;2.70;0.90;;;19.50;99.90;;;;;;12428798;28;20069;-83
